Time;durP1;ratioP1;P1;durP2;ratioP2;P2;SDS_P1;SDS_P2;PMS_P1;PMS_P2;Temp;Humidity;BMP_temperature;BMP_pressure;BME280_temperature;BME280_humidity;BME280_pressure;Samples;Min_cycle;Max_cycle;Signal;HPM_P1;HPM_P2
2023/04/09 05:00:46;;;;;;;12.13;11.10;;;;;;;;;;1754386;28;20298;-69
2023/04/09 05:01:37;;;;;;;11.90;10.80;;;;;;;;;;1754949;28;20641;-68
2023/04/09 05:02:29;;;;;;;12.40;11.30;;;;;;;;;;1754448;28;20251;-68
2023/04/09 05:03:20;;;;;;;12.98;11.88;;;;;;;;;;1754395;28;20237;-68
2023/04/09 05:04:12;;;;;;;12.40;11.30;;;;;;;;;;1755273;28;20196;-68
2023/04/09 05:05:04;;;;;;;11.90;10.75;;;;;;;;;;1754535;28;20201;-68
2023/04/09 05:05:56;;;;;;;11.90;10.90;;;;;;;;;;1755228;28;20204;-68
2023/04/09 05:06:47;;;;;;;12.32;11.35;;;;;;;;;;1755294;28;20202;-68
2023/04/09 05:07:39;;;;;;;12.40;11.32;;;;;;;;;;1753449;28;20205;-68
2023/04/09 05:08:30;;;;;;;12.98;11.77;;;;;;;;;;1752800;28;20220;-68
2023/04/09 05:09:22;;;;;;;11.25;10.35;;;;;;;;;;1751175;28;20204;-68
2023/04/09 05:10:13;;;;;;;12.98;11.88;;;;;;;;;;1754800;28;20202;-68
2023/04/09 05:11:06;;;;;;;12.30;11.30;;;;;;;;;;1754387;28;20243;-68
2023/04/09 05:11:57;;;;;;;12.50;11.30;;;;;;;;;;1754846;28;20206;-68
2023/04/09 05:12:49;;;;;;;12.00;11.00;;;;;;;;;;1754660;28;20220;-68
2023/04/09 05:13:40;;;;;;;13.10;11.90;;;;;;;;;;1754902;28;20210;-68
2023/04/09 05:14:32;;;;;;;12.75;11.65;;;;;;;;;;1753981;28;20194;-68
2023/04/09 05:15:23;;;;;;;12.30;11.30;;;;;;;;;;1754474;28;20197;-68
2023/04/09 05:16:20;;;;;;;12.48;11.38;;;;;;;;;;1755152;28;20315;-68
2023/04/09 05:17:11;;;;;;;11.73;10.73;;;;;;;;;;1754653;28;20281;-68
2023/04/09 05:18:04;;;;;;;11.60;10.65;;;;;;;;;;1751988;28;20202;-68
2023/04/09 05:18:55;;;;;;;12.43;11.30;;;;;;;;;;1748503;28;20483;-68
2023/04/09 05:19:51;;;;;;;12.30;11.10;;;;;;;;;;1752616;28;20190;-68
2023/04/09 05:20:42;;;;;;;12.52;11.30;;;;;;;;;;1754685;28;20250;-68
2023/04/09 05:21:34;;;;;;;12.82;11.73;;;;;;;;;;1753579;28;20481;-68
2023/04/09 05:22:25;;;;;;;11.95;10.95;;;;;;;;;;1754344;28;20210;-68
2023/04/09 05:23:17;;;;;;;11.55;10.55;;;;;;;;;;1754339;28;20202;-68
2023/04/09 05:24:08;;;;;;;10.82;10.00;;;;;;;;;;1755143;28;20573;-68
2023/04/09 05:25:00;;;;;;;11.90;10.80;;;;;;;;;;1754183;28;20194;-68
2023/04/09 05:25:51;;;;;;;11.57;10.57;;;;;;;;;;1754818;28;20210;-68
2023/04/09 05:26:43;;;;;;;11.88;10.88;;;;;;;;;;1754286;28;20205;-68
2023/04/09 05:27:34;;;;;;;12.23;11.23;;;;;;;;;;1753451;28;20194;-68
2023/04/09 05:28:26;;;;;;;12.40;11.20;;;;;;;;;;1752313;28;20193;-68
2023/04/09 05:29:17;;;;;;;13.80;12.60;;;;;;;;;;1750208;28;20750;-68
2023/04/09 05:30:10;;;;;;;11.80;10.80;;;;;;;;;;1752761;28;20201;-68
2023/04/09 05:31:01;;;;;;;13.63;12.43;;;;;;;;;;1754154;28;20885;-68
2023/04/09 05:31:54;;;;;;;12.52;11.48;;;;;;;;;;1754603;28;20293;-68
2023/04/09 05:32:45;;;;;;;12.50;11.40;;;;;;;;;;1754757;28;20205;-68
2023/04/09 05:33:37;;;;;;;12.45;11.25;;;;;;;;;;1754562;28;20373;-68
2023/04/09 05:34:29;;;;;;;12.98;11.60;;;;;;;;;;1754906;28;20256;-68
2023/04/09 05:35:21;;;;;;;12.05;11.05;;;;;;;;;;1753403;28;20194;-68
2023/04/09 05:36:14;;;;;;;12.27;10.25;;;;;;;;;;1754770;28;20209;-68
2023/04/09 05:37:06;;;;;;;12.75;11.68;;;;;;;;;;1754827;28;20557;-68
2023/04/09 05:37:57;;;;;;;14.35;13.15;;;;;;;;;;1750195;28;20217;-68
2023/04/09 05:38:49;;;;;;;16.42;15.02;;;;;;;;;;1753560;28;20707;-68
2023/04/09 05:39:41;;;;;;;14.77;13.43;;;;;;;;;;1749925;28;20612;-68
2023/04/09 05:40:34;;;;;;;14.93;13.63;;;;;;;;;;1750815;28;20283;-69
2023/04/09 05:41:25;;;;;;;16.83;15.25;;;;;;;;;;1747860;28;20203;-68
2023/04/09 05:42:17;;;;;;;16.90;15.50;;;;;;;;;;1754180;28;20202;-68
2023/04/09 05:43:08;;;;;;;17.55;15.95;;;;;;;;;;1754550;28;20700;-68
2023/04/09 05:44:00;;;;;;;23.98;21.45;;;;;;;;;;1754726;28;20225;-68
2023/04/09 05:44:51;;;;;;;19.30;17.50;;;;;;;;;;1754943;28;20201;-68
2023/04/09 05:45:43;;;;;;;19.70;17.90;;;;;;;;;;1754794;28;20197;-68
2023/04/09 05:46:34;;;;;;;18.80;17.10;;;;;;;;;;1754795;28;20206;-68
2023/04/09 05:47:28;;;;;;;19.92;17.92;;;;;;;;;;1754835;28;20251;-68
2023/04/09 05:48:19;;;;;;;17.05;15.35;;;;;;;;;;1750272;28;20233;-68
2023/04/09 05:49:11;;;;;;;16.83;15.32;;;;;;;;;;1753033;28;20190;-68
2023/04/09 05:50:03;;;;;;;15.50;14.10;;;;;;;;;;1747326;28;20209;-68
2023/04/09 05:50:55;;;;;;;14.68;13.32;;;;;;;;;;1747809;28;20240;-68
2023/04/09 05:51:46;;;;;;;15.20;13.27;;;;;;;;;;1753553;28;20205;-68
2023/04/09 05:52:38;;;;;;;12.57;11.43;;;;;;;;;;1754147;28;20190;-68
2023/04/09 05:53:30;;;;;;;12.50;11.50;;;;;;;;;;1753702;28;20194;-68
2023/04/09 05:54:22;;;;;;;13.05;11.93;;;;;;;;;;1754651;28;20312;-68
2023/04/09 05:55:14;;;;;;;12.95;11.85;;;;;;;;;;1754823;28;20202;-68
2023/04/09 05:56:13;;;;;;;13.30;12.10;;;;;;;;;;1754669;28;20284;-68
2023/04/09 05:57:04;;;;;;;13.35;12.15;;;;;;;;;;1753844;28;20209;-68
2023/04/09 05:57:56;;;;;;;13.82;12.63;;;;;;;;;;1753524;28;20228;-68
2023/04/09 05:58:47;;;;;;;13.88;12.68;;;;;;;;;;1748372;28;20210;-67
2023/04/09 05:59:39;;;;;;;14.77;13.48;;;;;;;;;;1750452;28;20202;-68
2023/04/09 06:00:30;;;;;;;13.90;12.60;;;;;;;;;;1747343;28;20651;-68
2023/04/09 06:01:22;;;;;;;15.32;14.02;;;;;;;;;;1750406;28;20202;-68
2023/04/09 06:02:13;;;;;;;15.20;13.80;;;;;;;;;;1754694;28;20206;-69
2023/04/09 06:03:07;;;;;;;16.05;14.50;;;;;;;;;;1753824;28;20193;-69
2023/04/09 06:03:58;;;;;;;16.50;15.00;;;;;;;;;;1750230;28;20224;-69
2023/04/09 06:04:50;;;;;;;15.32;13.95;;;;;;;;;;1750549;28;20186;-69
2023/04/09 06:05:41;;;;;;;16.52;15.02;;;;;;;;;;1754068;28;20354;-69
2023/04/09 06:06:34;;;;;;;15.68;14.18;;;;;;;;;;1754514;28;20573;-69
2023/04/09 06:07:25;;;;;;;17.23;15.73;;;;;;;;;;1754773;28;20201;-69
2023/04/09 06:08:17;;;;;;;16.27;14.88;;;;;;;;;;1750411;28;20187;-69
2023/04/09 06:09:08;;;;;;;14.60;13.20;;;;;;;;;;1750666;28;20208;-69
2023/04/09 06:10:01;;;;;;;15.07;13.77;;;;;;;;;;1749777;28;20194;-69
2023/04/09 06:10:52;;;;;;;15.45;14.05;;;;;;;;;;1754809;28;20761;-69
2023/04/09 06:11:44;;;;;;;16.17;14.77;;;;;;;;;;1754607;28;20222;-70
2023/04/09 06:12:35;;;;;;;15.32;13.82;;;;;;;;;;1754823;28;20201;-69
2023/04/09 06:13:27;;;;;;;16.20;14.75;;;;;;;;;;1753816;28;20198;-69
2023/04/09 06:14:18;;;;;;;15.35;13.85;;;;;;;;;;1754337;28;20229;-69
2023/04/09 06:15:10;;;;;;;16.70;15.20;;;;;;;;;;1754059;28;20259;-69
2023/04/09 06:16:05;;;;;;;15.40;13.88;;;;;;;;;;1753785;28;20236;-70
2023/04/09 06:16:59;;;;;;;15.27;13.98;;;;;;;;;;1754899;28;20210;-69
2023/04/09 06:17:50;;;;;;;15.90;14.38;;;;;;;;;;1753727;28;20233;-68
2023/04/09 06:18:45;;;;;;;14.48;13.18;;;;;;;;;;1748089;28;20277;-69
2023/04/09 06:19:36;;;;;;;15.25;13.88;;;;;;;;;;1751833;28;20194;-69
2023/04/09 06:20:28;;;;;;;15.60;14.20;;;;;;;;;;1750384;28;20195;-69
2023/04/09 06:21:19;;;;;;;14.98;13.73;;;;;;;;;;1753385;28;20229;-69
2023/04/09 06:22:11;;;;;;;14.60;13.10;;;;;;;;;;1754558;28;20205;-69
2023/04/09 06:23:02;;;;;;;14.52;13.23;;;;;;;;;;1753986;28;20205;-68
2023/04/09 06:23:54;;;;;;;14.73;13.43;;;;;;;;;;1754350;28;20250;-69
2023/04/09 06:24:46;;;;;;;15.10;13.70;;;;;;;;;;1754556;28;20197;-68
2023/04/09 06:25:38;;;;;;;15.93;14.40;;;;;;;;;;1754548;28;20202;-68
2023/04/09 06:26:29;;;;;;;14.80;13.40;;;;;;;;;;1753745;28;20197;-68
2023/04/09 06:27:21;;;;;;;14.43;13.13;;;;;;;;;;1753973;28;20250;-68
2023/04/09 06:28:12;;;;;;;14.85;13.50;;;;;;;;;;1750463;28;20206;-68
2023/04/09 06:29:04;;;;;;;14.30;12.93;;;;;;;;;;1750852;28;20270;-69
2023/04/09 06:29:55;;;;;;;15.48;14.13;;;;;;;;;;1752914;28;20740;-69
2023/04/09 06:30:47;;;;;;;14.90;13.60;;;;;;;;;;1754272;28;20280;-68
2023/04/09 06:31:38;;;;;;;15.80;14.30;;;;;;;;;;1754516;28;20205;-67
2023/04/09 06:32:30;;;;;;;14.55;13.25;;;;;;;;;;1753926;28;20680;-67
2023/04/09 06:33:22;;;;;;;14.93;13.52;;;;;;;;;;1753769;28;20721;-67
2023/04/09 06:34:15;;;;;;;16.15;14.65;;;;;;;;;;1753066;28;20198;-67
2023/04/09 06:35:07;;;;;;;15.73;14.23;;;;;;;;;;1753551;28;20244;-67
2023/04/09 06:35:59;;;;;;;15.43;14.13;;;;;;;;;;1754804;28;20596;-67
2023/04/09 06:36:50;;;;;;;15.73;13.40;;;;;;;;;;1753606;28;20565;-67
2023/04/09 06:37:42;;;;;;;15.02;13.63;;;;;;;;;;1752518;28;20570;-67
2023/04/09 06:38:33;;;;;;;14.68;13.27;;;;;;;;;;1751979;28;20206;-67
2023/04/09 06:39:25;;;;;;;15.52;14.13;;;;;;;;;;1749251;28;20794;-67
2023/04/09 06:40:16;;;;;;;14.32;13.02;;;;;;;;;;1746650;28;20237;-67
2023/04/09 06:41:11;;;;;;;15.43;13.90;;;;;;;;;;1747540;28;20225;-68
2023/04/09 06:42:02;;;;;;;14.85;13.65;;;;;;;;;;1747471;28;20677;-70
2023/04/09 06:42:54;;;;;;;14.90;13.60;;;;;;;;;;1747565;28;20200;-67
2023/04/09 06:43:45;;;;;;;15.30;14.00;;;;;;;;;;1747260;28;20202;-67
2023/04/09 06:44:37;;;;;;;14.82;13.43;;;;;;;;;;1750599;28;20247;-67
2023/04/09 06:45:30;;;;;;;15.38;14.05;;;;;;;;;;1754453;28;20217;-68
2023/04/09 06:46:22;;;;;;;14.23;13.02;;;;;;;;;;1754597;28;20618;-66
2023/04/09 06:47:13;;;;;;;15.00;13.60;;;;;;;;;;1754279;28;20213;-69
2023/04/09 06:48:05;;;;;;;14.57;13.23;;;;;;;;;;1752590;28;20631;-68
2023/04/09 06:48:56;;;;;;;14.90;13.60;;;;;;;;;;1753570;28;20194;-67
2023/04/09 06:49:50;;;;;;;15.32;13.93;;;;;;;;;;1748749;28;20190;-70
2023/04/09 06:50:42;;;;;;;14.73;13.52;;;;;;;;;;1747415;28;20279;-68
2023/04/09 06:51:33;;;;;;;14.13;12.88;;;;;;;;;;1747596;28;20214;-68
2023/04/09 06:52:25;;;;;;;15.05;13.65;;;;;;;;;;1747532;28;20532;-68
2023/04/09 06:53:16;;;;;;;15.50;14.20;;;;;;;;;;1747491;28;20222;-68
2023/04/09 06:54:09;;;;;;;15.60;14.00;;;;;;;;;;1747389;28;20200;-68
2023/04/09 06:55:00;;;;;;;15.13;13.82;;;;;;;;;;1747228;28;20227;-69
2023/04/09 06:55:52;;;;;;;15.48;14.18;;;;;;;;;;1747634;28;20684;-68
2023/04/09 06:56:43;;;;;;;15.13;13.52;;;;;;;;;;1747527;28;20226;-67
2023/04/09 06:57:36;;;;;;;14.50;13.30;;;;;;;;;;1747786;28;20324;-69
2023/04/09 06:58:27;;;;;;;15.00;13.57;;;;;;;;;;1752472;28;20198;-69
2023/04/09 06:59:19;;;;;;;14.75;13.35;;;;;;;;;;1750097;28;20538;-70
2023/04/09 07:00:11;;;;;;;14.93;13.48;;;;;;;;;;1754269;28;20209;-67
2023/04/09 07:01:03;;;;;;;15.35;13.95;;;;;;;;;;1754490;28;20667;-67
2023/04/09 07:01:54;;;;;;;15.18;13.68;;;;;;;;;;1754406;28;20209;-69
2023/04/09 07:02:46;;;;;;;15.35;14.00;;;;;;;;;;1754430;28;20575;-69
2023/04/09 07:03:37;;;;;;;15.38;14.00;;;;;;;;;;1747328;28;20195;-69
2023/04/09 07:04:29;;;;;;;14.88;13.60;;;;;;;;;;1747110;28;20231;-69
2023/04/09 07:05:22;;;;;;;15.50;14.00;;;;;;;;;;1747384;28;20203;-69
2023/04/09 07:06:14;;;;;;;15.02;13.70;;;;;;;;;;1747609;28;20203;-69
2023/04/09 07:07:05;;;;;;;15.00;13.60;;;;;;;;;;1747496;28;20206;-69
2023/04/09 07:07:57;;;;;;;14.98;13.68;;;;;;;;;;1749945;28;20206;-67
2023/04/09 07:08:49;;;;;;;14.73;13.43;;;;;;;;;;1751861;28;20591;-69
2023/04/09 07:09:41;;;;;;;15.40;13.90;;;;;;;;;;1750909;28;20273;-67
2023/04/09 07:10:32;;;;;;;15.68;14.27;;;;;;;;;;1753992;28;20642;-67
2023/04/09 07:11:24;;;;;;;15.02;13.73;;;;;;;;;;1754261;28;20197;-67
2023/04/09 07:12:25;;;;;;;15.38;14.02;;;;;;;;;;1754506;28;20225;-69
2023/04/09 07:13:17;;;;;;;14.30;13.00;;;;;;;;;;1754661;28;20684;-68
2023/04/09 07:14:08;;;;;;;15.57;14.18;;;;;;;;;;1754209;28;20252;-70
2023/04/09 07:15:00;;;;;;;14.40;13.10;;;;;;;;;;1754135;28;20275;-71
2023/04/09 07:15:51;;;;;;;14.93;13.65;;;;;;;;;;1754289;28;20232;-71
2023/04/09 07:16:45;;;;;;;17.50;13.80;;;;;;;;;;1753745;28;20291;-66
2023/04/09 07:17:36;;;;;;;15.88;14.48;;;;;;;;;;1750342;28;20206;-66
2023/04/09 07:18:28;;;;;;;14.52;13.23;;;;;;;;;;1752495;28;20201;-66
2023/04/09 07:19:20;;;;;;;14.68;13.48;;;;;;;;;;1748869;28;20206;-66
2023/04/09 07:20:11;;;;;;;14.52;13.23;;;;;;;;;;1750429;28;20232;-69
2023/04/09 07:21:05;;;;;;;15.23;13.93;;;;;;;;;;1750149;28;20649;-70
2023/04/09 07:21:56;;;;;;;15.15;13.75;;;;;;;;;;1753283;28;20198;-69
2023/04/09 07:22:48;;;;;;;14.73;13.43;;;;;;;;;;1751117;28;20240;-67
2023/04/09 07:23:39;;;;;;;15.18;13.88;;;;;;;;;;1748437;28;20668;-67
2023/04/09 07:24:31;;;;;;;14.50;13.25;;;;;;;;;;1754144;28;20220;-67
2023/04/09 07:25:22;;;;;;;14.45;13.10;;;;;;;;;;1754178;28;20212;-67
2023/04/09 07:26:14;;;;;;;15.50;14.00;;;;;;;;;;1753286;28;20296;-67
2023/04/09 07:27:06;;;;;;;16.33;13.70;;;;;;;;;;1749677;28;20233;-67
2023/04/09 07:27:58;;;;;;;15.10;13.80;;;;;;;;;;1751384;28;20197;-67
2023/04/09 07:28:49;;;;;;;15.20;13.85;;;;;;;;;;1750266;28;20194;-67
2023/04/09 07:29:44;;;;;;;14.82;13.52;;;;;;;;;;1749657;28;20200;-67
2023/04/09 07:30:36;;;;;;;15.00;13.65;;;;;;;;;;1749115;28;20590;-67
2023/04/09 07:31:27;;;;;;;18.10;15.40;;;;;;;;;;1749756;28;20224;-67
2023/04/09 07:32:19;;;;;;;16.45;14.95;;;;;;;;;;1746960;28;20198;-68
2023/04/09 07:33:10;;;;;;;16.60;15.10;;;;;;;;;;1747284;28;20237;-67
2023/04/09 07:34:02;;;;;;;14.75;13.32;;;;;;;;;;1749832;28;20212;-67
2023/04/09 07:34:54;;;;;;;16.25;14.85;;;;;;;;;;1751686;28;20210;-67
2023/04/09 07:35:46;;;;;;;14.27;12.90;;;;;;;;;;1751321;28;20222;-67
2023/04/09 07:36:40;;;;;;;14.10;12.80;;;;;;;;;;1750237;28;20201;-66
2023/04/09 07:37:32;;;;;;;13.48;12.18;;;;;;;;;;1749739;28;20512;-67
2023/04/09 07:38:23;;;;;;;14.20;12.95;;;;;;;;;;1749038;28;20686;-66
2023/04/09 07:39:15;;;;;;;13.48;12.32;;;;;;;;;;1750678;28;20558;-66
2023/04/09 07:40:07;;;;;;;15.20;13.90;;;;;;;;;;1746530;28;20620;-66
2023/04/09 07:40:59;;;;;;;15.75;14.35;;;;;;;;;;1746593;28;20254;-66
2023/04/09 07:41:50;;;;;;;14.88;13.52;;;;;;;;;;1746655;28;20234;-67
2023/04/09 07:42:42;;;;;;;14.23;13.02;;;;;;;;;;1747427;28;20719;-67
2023/04/09 07:43:33;;;;;;;14.00;12.70;;;;;;;;;;1746824;28;20198;-67
2023/04/09 07:44:25;;;;;;;13.90;12.70;;;;;;;;;;1747185;28;20277;-66
2023/04/09 07:45:16;;;;;;;13.80;12.50;;;;;;;;;;1747030;28;20198;-66
2023/04/09 07:46:08;;;;;;;14.10;12.77;;;;;;;;;;1747649;28;20203;-66
2023/04/09 07:46:59;;;;;;;14.38;13.07;;;;;;;;;;1748811;28;20230;-67
2023/04/09 07:47:51;;;;;;;13.80;12.60;;;;;;;;;;1748728;28;20218;-66
2023/04/09 07:48:42;;;;;;;12.57;11.48;;;;;;;;;;1754200;28;20228;-67
2023/04/09 07:49:36;;;;;;;12.52;11.50;;;;;;;;;;1751299;28;20182;-67
2023/04/09 07:50:27;;;;;;;12.52;11.43;;;;;;;;;;1747791;28;20213;-66
2023/04/09 07:51:19;;;;;;;12.30;11.23;;;;;;;;;;1748779;28;20577;-66
2023/04/09 07:52:12;;;;;;;12.90;11.70;;;;;;;;;;1748653;28;20724;-66
2023/04/09 07:53:04;;;;;;;13.40;12.25;;;;;;;;;;1748668;28;20695;-66
2023/04/09 07:53:55;;;;;;;12.10;11.10;;;;;;;;;;1748741;28;20199;-66
2023/04/09 07:54:47;;;;;;;12.68;11.57;;;;;;;;;;1748791;28;20198;-67
2023/04/09 07:55:40;;;;;;;12.10;11.00;;;;;;;;;;1748604;28;20210;-67
2023/04/09 07:56:31;;;;;;;12.25;11.15;;;;;;;;;;1748761;28;20661;-67
2023/04/09 07:57:23;;;;;;;12.75;11.50;;;;;;;;;;1748609;28;20251;-67
2023/04/09 07:58:14;;;;;;;11.88;10.85;;;;;;;;;;1751564;28;20193;-67
2023/04/09 07:59:06;;;;;;;11.45;10.45;;;;;;;;;;1749522;28;20240;-66
2023/04/09 07:59:57;;;;;;;12.45;11.35;;;;;;;;;;1749566;28;20232;-66
2023/04/09 08:00:49;;;;;;;12.60;11.45;;;;;;;;;;1748591;28;20264;-66
2023/04/09 08:01:41;;;;;;;13.30;12.05;;;;;;;;;;1748483;28;20198;-66
2023/04/09 08:02:33;;;;;;;12.38;11.27;;;;;;;;;;1748705;28;20206;-66
2023/04/09 08:03:24;;;;;;;15.20;13.80;;;;;;;;;;1748586;28;20198;-66
2023/04/09 08:04:16;;;;;;;12.23;11.13;;;;;;;;;;1748711;28;20218;-67
2023/04/09 08:05:07;;;;;;;11.10;10.07;;;;;;;;;;1748585;28;20202;-67
2023/04/09 08:06:00;;;;;;;9.73;8.93;;;;;;;;;;1748736;28;20239;-67
2023/04/09 08:06:52;;;;;;;10.30;9.40;;;;;;;;;;1748601;28;20205;-66
2023/04/09 08:07:45;;;;;;;10.00;9.10;;;;;;;;;;1750158;28;20238;-66
2023/04/09 08:08:36;;;;;;;9.57;8.77;;;;;;;;;;1754199;28;20479;-67
2023/04/09 08:09:29;;;;;;;10.32;9.43;;;;;;;;;;1752350;28;20236;-67
2023/04/09 08:10:20;;;;;;;10.18;9.27;;;;;;;;;;1748179;28;20206;-67
2023/04/09 08:11:12;;;;;;;9.82;8.95;;;;;;;;;;1748700;28;20627;-67
2023/04/09 08:12:03;;;;;;;10.40;9.50;;;;;;;;;;1748564;28;20230;-67
2023/04/09 08:12:55;;;;;;;9.10;8.20;;;;;;;;;;1748788;28;20195;-67
2023/04/09 08:13:46;;;;;;;9.75;8.93;;;;;;;;;;1748633;28;20363;-66
2023/04/09 08:14:38;;;;;;;10.57;8.95;;;;;;;;;;1748634;28;20298;-66
2023/04/09 08:15:29;;;;;;;11.20;10.10;;;;;;;;;;1748583;28;20246;-67
2023/04/09 08:16:23;;;;;;;11.23;10.23;;;;;;;;;;1748569;28;20206;-66
2023/04/09 08:17:14;;;;;;;10.02;9.13;;;;;;;;;;1748767;28;20336;-66
2023/04/09 08:18:06;;;;;;;10.93;10.00;;;;;;;;;;1751450;28;20199;-66
2023/04/09 08:18:57;;;;;;;10.88;9.88;;;;;;;;;;1748664;28;20225;-67
2023/04/09 08:19:49;;;;;;;10.52;9.63;;;;;;;;;;1753507;28;20194;-66
2023/04/09 08:20:43;;;;;;;11.40;10.40;;;;;;;;;;1755304;28;20286;-67
2023/04/09 08:21:38;;;;;;;11.15;10.15;;;;;;;;;;1755476;28;20205;-67
2023/04/09 08:22:29;;;;;;;11.15;10.05;;;;;;;;;;1755610;28;20385;-67
2023/04/09 08:23:22;;;;;;;11.75;10.75;;;;;;;;;;1755435;28;20280;-67
2023/04/09 08:24:14;;;;;;;11.75;10.73;;;;;;;;;;1755458;28;20236;-67
2023/04/09 08:25:07;;;;;;;11.35;10.35;;;;;;;;;;1755461;28;20594;-67
2023/04/09 08:25:58;;;;;;;11.52;10.40;;;;;;;;;;1755478;28;20225;-66
2023/04/09 08:26:50;;;;;;;10.63;9.73;;;;;;;;;;1755421;28;20717;-67
2023/04/09 08:27:41;;;;;;;10.80;9.70;;;;;;;;;;1753724;28;20565;-66
2023/04/09 08:28:33;;;;;;;10.40;9.50;;;;;;;;;;1753506;28;20540;-66
2023/04/09 08:29:24;;;;;;;11.30;10.23;;;;;;;;;;1751087;28;20217;-65
2023/04/09 08:30:16;;;;;;;10.25;9.35;;;;;;;;;;1755105;28;20204;-65
2023/04/09 08:31:08;;;;;;;9.20;8.40;;;;;;;;;;1755410;28;20210;-66
2023/04/09 08:32:00;;;;;;;9.52;8.70;;;;;;;;;;1755359;28;20263;-66
2023/04/09 08:32:52;;;;;;;9.80;9.00;;;;;;;;;;1755428;28;20622;-65
2023/04/09 08:33:45;;;;;;;9.45;8.65;;;;;;;;;;1755624;28;20200;-66
2023/04/09 08:34:36;;;;;;;10.45;9.55;;;;;;;;;;1755502;28;20210;-66
2023/04/09 08:35:28;;;;;;;10.48;9.48;;;;;;;;;;1755304;28;20221;-66
2023/04/09 08:36:19;;;;;;;10.77;9.55;;;;;;;;;;1755420;28;20682;-66
2023/04/09 08:37:11;;;;;;;10.07;9.07;;;;;;;;;;1755518;28;20198;-66
2023/04/09 08:38:02;;;;;;;10.95;10.00;;;;;;;;;;1751414;28;20202;-66
2023/04/09 08:38:56;;;;;;;10.00;9.15;;;;;;;;;;1754374;28;20243;-65
2023/04/09 08:39:47;;;;;;;11.57;10.57;;;;;;;;;;1753067;28;20216;-65
2023/04/09 08:40:39;;;;;;;10.88;9.95;;;;;;;;;;1755208;28;20624;-66
2023/04/09 08:41:30;;;;;;;10.35;9.45;;;;;;;;;;1755542;28;20580;-66
2023/04/09 08:42:23;;;;;;;10.63;9.63;;;;;;;;;;1755384;28;20266;-65
2023/04/09 08:43:15;;;;;;;11.20;10.30;;;;;;;;;;1755505;28;20197;-66
2023/04/09 08:44:07;;;;;;;10.80;9.85;;;;;;;;;;1755354;28;20204;-66
2023/04/09 08:44:58;;;;;;;12.07;10.93;;;;;;;;;;1755415;28;20244;-66
2023/04/09 08:45:51;;;;;;;11.75;10.65;;;;;;;;;;1755301;28;20197;-66
2023/04/09 08:46:42;;;;;;;11.88;10.77;;;;;;;;;;1755475;28;20202;-66
2023/04/09 08:47:34;;;;;;;12.15;11.00;;;;;;;;;;1754724;28;20548;-66
2023/04/09 08:48:25;;;;;;;12.32;11.23;;;;;;;;;;1752117;28;20228;-66
2023/04/09 08:49:17;;;;;;;12.27;11.18;;;;;;;;;;1752024;28;20187;-65
2023/04/09 08:50:09;;;;;;;11.60;10.60;;;;;;;;;;1754642;28;20263;-66
2023/04/09 08:51:01;;;;;;;11.77;10.77;;;;;;;;;;1755227;28;20225;-66
2023/04/09 08:51:52;;;;;;;11.60;10.60;;;;;;;;;;1755305;28;20194;-66
2023/04/09 08:52:46;;;;;;;10.25;9.38;;;;;;;;;;1755521;28;20563;-66
2023/04/09 08:53:38;;;;;;;11.77;10.68;;;;;;;;;;1755609;28;20198;-66
2023/04/09 08:54:31;;;;;;;10.77;9.88;;;;;;;;;;1755330;28;20198;-66
2023/04/09 08:55:22;;;;;;;11.35;10.35;;;;;;;;;;1755357;28;20210;-65
2023/04/09 08:56:14;;;;;;;10.55;9.65;;;;;;;;;;1755401;28;20201;-65
2023/04/09 08:57:06;;;;;;;9.95;9.10;;;;;;;;;;1755355;28;20206;-66
2023/04/09 08:57:58;;;;;;;9.95;9.15;;;;;;;;;;1752934;28;20654;-66
2023/04/09 08:58:49;;;;;;;9.75;8.90;;;;;;;;;;1754390;28;20696;-66
2023/04/09 08:59:41;;;;;;;10.13;9.23;;;;;;;;;;1753439;28;20534;-65
2023/04/09 09:00:32;;;;;;;10.00;9.15;;;;;;;;;;1754943;28;20278;-66
2023/04/09 09:01:25;;;;;;;10.77;9.88;;;;;;;;;;1755268;28;20197;-65
2023/04/09 09:02:16;;;;;;;10.48;9.57;;;;;;;;;;1755235;28;20206;-66
2023/04/09 09:03:09;;;;;;;11.20;10.02;;;;;;;;;;1755310;28;20201;-66
2023/04/09 09:04:02;;;;;;;10.55;9.65;;;;;;;;;;1755172;28;20665;-66
2023/04/09 09:04:59;;;;;;;11.93;10.82;;;;;;;;;;1755377;28;20198;-66
2023/04/09 09:05:50;;;;;;;10.77;9.88;;;;;;;;;;1755396;28;20205;-66
2023/04/09 09:06:43;;;;;;;10.32;9.52;;;;;;;;;;1755193;28;20212;-66
2023/04/09 09:07:34;;;;;;;9.57;8.77;;;;;;;;;;1754419;28;20828;-65
2023/04/09 09:08:26;;;;;;;10.20;9.30;;;;;;;;;;1752033;28;20220;-65
2023/04/09 09:09:18;;;;;;;9.32;8.52;;;;;;;;;;1752395;28;20216;-66
2023/04/09 09:10:11;;;;;;;10.45;9.52;;;;;;;;;;1747925;28;20220;-66
2023/04/09 09:11:02;;;;;;;10.30;9.50;;;;;;;;;;1748160;28;20238;-66
2023/04/09 09:11:54;;;;;;;9.80;9.00;;;;;;;;;;1748278;28;20199;-66
2023/04/09 09:12:45;;;;;;;13.38;9.73;;;;;;;;;;1748227;28;20207;-66
2023/04/09 09:13:37;;;;;;;10.35;9.45;;;;;;;;;;1748284;28;20293;-66
2023/04/09 09:14:32;;;;;;;9.88;9.07;;;;;;;;;;1748142;28;20242;-66
2023/04/09 09:15:29;;;;;;;9.20;8.40;;;;;;;;;;1748135;28;20202;-65
2023/04/09 09:16:20;;;;;;;8.45;7.68;;;;;;;;;;1748164;28;20579;-66
2023/04/09 09:17:12;;;;;;;7.68;7.00;;;;;;;;;;1748331;28;20549;-65
2023/04/09 09:18:03;;;;;;;9.30;8.52;;;;;;;;;;1750903;28;20557;-66
2023/04/09 09:18:56;;;;;;;9.50;8.60;;;;;;;;;;1748993;28;20205;-66
2023/04/09 09:19:47;;;;;;;9.48;8.60;;;;;;;;;;1749802;28;20256;-66
2023/04/09 09:20:39;;;;;;;9.60;8.80;;;;;;;;;;1747924;28;20297;-66
2023/04/09 09:21:30;;;;;;;11.27;10.27;;;;;;;;;;1753465;28;20189;-66
2023/04/09 09:22:22;;;;;;;11.05;10.05;;;;;;;;;;1755188;28;20747;-66
2023/04/09 09:23:13;;;;;;;10.63;9.68;;;;;;;;;;1755123;28;20609;-66
2023/04/09 09:24:17;;;;;;;10.52;9.63;;;;;;;;;;1755119;28;20205;-66
2023/04/09 09:25:12;;;;;;;10.52;9.63;;;;;;;;;;1755286;28;20579;-66
2023/04/09 09:26:13;;;;;;;10.90;10.00;;;;;;;;;;1755199;28;20208;-66
2023/04/09 09:27:04;;;;;;;12.00;10.95;;;;;;;;;;1755114;28;20206;-65
2023/04/09 09:28:07;;;;;;;12.15;11.13;;;;;;;;;;1751636;28;20198;-65
2023/04/09 09:29:01;;;;;;;10.65;9.75;;;;;;;;;;1747756;28;20569;-66
2023/04/09 09:29:52;;;;;;;11.07;10.02;;;;;;;;;;1753399;28;20661;-65
2023/04/09 09:30:44;;;;;;;10.07;9.27;;;;;;;;;;1754710;28;20230;-66
2023/04/09 09:31:46;;;;;;;10.43;9.60;;;;;;;;;;1755037;28;20625;-68
2023/04/09 09:32:38;;;;;;;8.95;8.25;;;;;;;;;;1755183;28;20208;-66
2023/04/09 09:33:33;;;;;;;9.13;8.40;;;;;;;;;;1755023;28;20225;-66
2023/04/09 09:34:25;;;;;;;9.05;8.25;;;;;;;;;;1755005;28;20198;-66
2023/04/09 09:35:16;;;;;;;9.85;9.02;;;;;;;;;;1755128;28;20202;-66
2023/04/09 09:36:09;;;;;;;9.48;8.65;;;;;;;;;;1755039;28;20244;-66
2023/04/09 09:37:00;;;;;;;9.93;8.32;;;;;;;;;;1755118;28;20642;-66
2023/04/09 09:38:02;;;;;;;9.55;8.77;;;;;;;;;;1752182;28;20209;-66
2023/04/09 09:38:54;;;;;;;9.07;8.27;;;;;;;;;;1747811;28;20666;-65
2023/04/09 09:39:46;;;;;;;8.63;7.80;;;;;;;;;;1753022;28;20220;-66
2023/04/09 09:40:37;;;;;;;9.30;8.50;;;;;;;;;;1754809;28;20236;-66
2023/04/09 09:41:30;;;;;;;9.90;9.00;;;;;;;;;;1755036;28;20454;-66
2023/04/09 09:42:21;;;;;;;9.35;8.55;;;;;;;;;;1754942;28;20202;-66
2023/04/09 09:43:14;;;;;;;10.57;9.68;;;;;;;;;;1755123;28;20193;-66
2023/04/09 09:44:06;;;;;;;10.18;9.32;;;;;;;;;;1754948;28;20205;-66
2023/04/09 09:44:59;;;;;;;10.60;9.60;;;;;;;;;;1754988;28;20673;-66
2023/04/09 09:45:50;;;;;;;10.73;9.85;;;;;;;;;;1755016;28;20194;-66
2023/04/09 09:46:42;;;;;;;10.55;9.60;;;;;;;;;;1755076;28;20725;-66
2023/04/09 09:47:34;;;;;;;10.73;9.75;;;;;;;;;;1754401;28;20616;-66
2023/04/09 09:48:26;;;;;;;11.05;10.05;;;;;;;;;;1751857;28;20607;-66
2023/04/09 09:49:17;;;;;;;11.10;10.10;;;;;;;;;;1750254;28;20230;-65
2023/04/09 09:50:09;;;;;;;10.25;9.35;;;;;;;;;;1747670;28;20198;-66
2023/04/09 09:51:02;;;;;;;9.45;8.65;;;;;;;;;;1749008;28;20658;-65
2023/04/09 09:51:57;;;;;;;10.00;9.20;;;;;;;;;;1754636;28;20247;-66
2023/04/09 09:52:48;;;;;;;10.43;9.63;;;;;;;;;;1754266;28;20220;-66
2023/04/09 09:53:41;;;;;;;10.13;9.30;;;;;;;;;;1754934;28;20206;-66
2023/04/09 09:54:38;;;;;;;9.50;8.75;;;;;;;;;;1755104;28;20237;-66
2023/04/09 09:55:31;;;;;;;11.63;10.30;;;;;;;;;;1755034;28;20596;-66
2023/04/09 09:56:24;;;;;;;11.10;10.20;;;;;;;;;;1754884;28;20253;-65
2023/04/09 09:57:19;;;;;;;10.68;9.77;;;;;;;;;;1754968;28;20200;-66
2023/04/09 09:58:12;;;;;;;9.80;9.00;;;;;;;;;;1750849;28;20190;-66
2023/04/09 09:59:07;;;;;;;9.52;8.55;;;;;;;;;;1752055;28;20194;-66
2023/04/09 10:00:00;;;;;;;9.35;8.55;;;;;;;;;;1753590;28;20331;-66
2023/04/09 10:00:53;;;;;;;8.45;7.75;;;;;;;;;;1754769;28;20632;-66
2023/04/09 10:01:45;;;;;;;9.48;8.77;;;;;;;;;;1754865;28;20679;-66
2023/04/09 10:02:41;;;;;;;9.20;8.50;;;;;;;;;;1754914;28;20198;-66
2023/04/09 10:03:34;;;;;;;9.40;8.65;;;;;;;;;;1755039;28;20202;-66
2023/04/09 10:04:29;;;;;;;9.32;8.60;;;;;;;;;;1754809;28;20209;-66
2023/04/09 10:05:25;;;;;;;8.35;7.72;;;;;;;;;;1754733;28;20205;-65
2023/04/09 10:06:16;;;;;;;8.30;7.70;;;;;;;;;;1754947;28;20881;-66